METAR Data

Data at: 0147 UTC 21 Sep 2018

METAR for:KJFK (New York/Kennedy Int, NY, US)
Text:KJFK 210051Z 13005KT 10SM FEW021 OVC050 19/17 A3026 RMK AO2 SLP246 T01940167
Temperature: 19.4°C ( 67°F)
Dewpoint: 16.7°C ( 62°F) [RH = 84%]
Pressure (altimeter):30.26 inches Hg (1024.8 mb) [Sea level pressure: 1024.6 mb]
Winds:from the SE (130 degrees) at 6 MPH (5 knots; 2.6 m/s)
Visibility:10 or more sm (16+ km)
Ceiling:5000 feet AGL
Clouds: few clouds at 2100 feet AGL, overcast cloud deck at 5000 feet AGL